createdAt,value
2023-02-25T00:02:25.940Z,70.60
2023-02-25T00:04:55.901Z,70.40
2023-02-25T00:07:30.564Z,70.60
2023-02-25T00:10:00.592Z,70.60
2023-02-25T00:12:31.809Z,70.70
2023-02-25T00:17:23.095Z,70.70
2023-02-25T00:19:53.097Z,70.60
2023-02-25T00:24:40.840Z,70.60
2023-02-25T00:36:33.023Z,70.90
2023-02-25T00:39:02.943Z,70.80
2023-02-25T00:41:33.276Z,70.50
2023-02-25T00:44:05.091Z,70.30
2023-02-25T00:46:35.807Z,70.40
2023-02-25T00:49:05.959Z,70.30
2023-02-25T00:51:36.501Z,70.20
2023-02-25T00:54:06.489Z,69.90
2023-02-25T00:56:36.502Z,69.90
2023-02-25T00:59:06.409Z,69.80
2023-02-25T01:01:36.550Z,69.40
2023-02-25T01:04:07.147Z,69.10
2023-02-25T01:06:38.606Z,68.90
2023-02-25T01:09:15.622Z,68.60
2023-02-25T01:21:08.039Z,67.50
2023-02-25T01:23:37.875Z,67.20
2023-02-25T01:26:07.884Z,66.60
2023-02-25T01:28:37.865Z,66.20
2023-02-25T01:31:10.187Z,65.90
2023-02-25T01:33:40.466Z,66.40
2023-02-25T01:36:10.758Z,66.10
2023-02-25T01:38:40.766Z,65.90
2023-02-25T01:41:11.090Z,65.90
2023-02-25T01:43:42.246Z,65.60
2023-02-25T01:46:12.301Z,65.50
2023-02-25T01:48:43.496Z,65.30
2023-02-25T01:51:17.585Z,65.00
2023-02-25T01:53:49.963Z,64.70
2023-02-25T01:56:22.871Z,64.50
2023-02-25T01:58:54.237Z,64.20
2023-02-25T02:01:26.650Z,64.10
2023-02-25T02:03:57.066Z,64.00
2023-02-25T02:06:38.624Z,63.70
2023-02-25T02:09:12.236Z,63.30
2023-02-25T02:11:42.634Z,63.10
2023-02-25T02:14:17.143Z,62.80
2023-02-25T02:17:16.780Z,62.60
2023-02-25T02:20:17.104Z,62.60
2023-02-25T02:23:16.599Z,62.40
2023-02-25T02:26:12.803Z,61.90
2023-02-25T02:29:19.341Z,61.60
2023-02-25T02:32:26.397Z,61.70
2023-02-25T02:35:35.489Z,61.70
2023-02-25T02:38:34.009Z,60.90
2023-02-25T02:41:30.164Z,60.80
2023-02-25T02:44:19.066Z,60.70
2023-02-25T02:46:57.621Z,60.40
2023-02-25T02:49:51.221Z,60.30
2023-02-25T02:52:27.221Z,60.20
2023-02-25T02:55:06.009Z,59.90
2023-02-25T02:57:38.213Z,59.60
2023-02-25T03:00:27.331Z,59.70
2023-02-25T03:03:23.358Z,59.50
2023-02-25T03:05:56.194Z,59.10
2023-02-25T03:08:30.693Z,58.70
2023-02-25T03:11:00.666Z,58.80
2023-02-25T03:13:30.455Z,58.90
2023-02-25T03:16:02.982Z,58.80
2023-02-25T03:19:08.230Z,58.80
2023-02-25T03:21:44.252Z,58.40
2023-02-25T03:24:25.129Z,58.50
2023-02-25T03:26:55.873Z,58.30
2023-02-25T03:29:27.656Z,58.10
2023-02-25T03:32:12.308Z,58.10
2023-02-25T03:34:49.367Z,58.10
2023-02-25T03:37:25.707Z,58.10
2023-02-25T03:39:59.334Z,58.00
2023-02-25T03:42:36.153Z,58.00
2023-02-25T03:45:10.240Z,57.60
2023-02-25T03:47:41.666Z,57.40
2023-02-25T03:50:23.042Z,57.10
2023-02-25T03:52:53.238Z,57.30
2023-02-25T03:55:23.395Z,57.20
2023-02-25T03:57:54.649Z,57.20
2023-02-25T04:00:28.315Z,56.90
2023-02-25T04:02:58.399Z,57.00
2023-02-25T04:05:30.205Z,56.90
2023-02-25T04:08:01.990Z,57.00
2023-02-25T04:10:32.127Z,56.70
2023-02-25T04:13:02.080Z,56.60
2023-02-25T04:15:32.073Z,56.60
2023-02-25T04:18:02.125Z,56.50
2023-02-25T04:20:32.450Z,55.00
2023-02-25T04:23:03.381Z,55.50
2023-02-25T04:25:34.173Z,55.60
2023-02-25T04:28:03.868Z,55.70
2023-02-25T04:30:34.499Z,55.60
2023-02-25T04:33:04.924Z,55.20
2023-02-25T04:35:34.854Z,55.00
2023-02-25T04:38:04.641Z,54.90
2023-02-25T04:40:34.617Z,54.20
2023-02-25T04:43:04.677Z,54.30
2023-02-25T04:45:34.572Z,54.00
2023-02-25T04:48:04.392Z,53.60
2023-02-25T04:50:34.454Z,53.10
2023-02-25T04:53:05.066Z,53.00
2023-02-25T04:55:34.988Z,53.00
2023-02-25T04:58:04.822Z,53.10
2023-02-25T05:00:34.804Z,52.40
2023-02-25T05:03:04.757Z,53.00
2023-02-25T05:05:34.660Z,51.80
2023-02-25T05:08:06.132Z,52.20
2023-02-25T05:10:36.107Z,52.20
2023-02-25T05:13:05.980Z,52.20
2023-02-25T05:15:36.394Z,51.70
2023-02-25T05:18:06.353Z,50.70
2023-02-25T05:20:36.425Z,50.90
2023-02-25T05:23:06.506Z,50.90
2023-02-25T05:25:37.177Z,50.70
2023-02-25T05:28:07.552Z,50.40
2023-02-25T05:30:37.444Z,50.70
2023-02-25T05:33:08.766Z,50.60
2023-02-25T05:35:44.670Z,50.60
2023-02-25T05:38:14.433Z,50.40
2023-02-25T05:40:44.583Z,50.00
2023-02-25T05:43:14.434Z,49.50
2023-02-25T05:45:44.348Z,49.60
2023-02-25T05:48:14.264Z,49.00
2023-02-25T05:50:44.253Z,49.10
2023-02-25T05:53:14.016Z,48.50
2023-02-25T05:55:46.040Z,47.60
2023-02-25T05:58:16.333Z,47.20
2023-02-25T06:00:46.167Z,48.10
2023-02-25T06:03:16.168Z,48.40
2023-02-25T06:05:47.889Z,47.90
2023-02-25T06:08:18.040Z,48.30
2023-02-25T06:10:48.033Z,48.40
2023-02-25T06:13:17.866Z,48.40
2023-02-25T06:15:48.064Z,47.90
2023-02-25T06:18:17.859Z,47.50
2023-02-25T06:20:47.918Z,47.50
2023-02-25T06:23:18.260Z,47.40
2023-02-25T06:25:49.061Z,47.40
2023-02-25T06:28:18.941Z,47.20
2023-02-25T06:30:48.866Z,46.70
2023-02-25T06:33:18.738Z,46.60
2023-02-25T06:35:52.501Z,47.00
2023-02-25T06:38:23.472Z,47.00
2023-02-25T06:40:53.407Z,47.00
2023-02-25T06:43:23.302Z,47.10
2023-02-25T06:45:53.083Z,46.70
2023-02-25T06:48:22.978Z,46.80
2023-02-25T06:50:53.059Z,46.70
2023-02-25T06:53:24.768Z,46.50
2023-02-25T06:55:54.886Z,46.20
2023-02-25T06:58:24.843Z,45.20
2023-02-25T07:00:54.887Z,45.10
2023-02-25T07:03:24.840Z,45.40
2023-02-25T07:05:54.782Z,45.60
2023-02-25T07:08:24.727Z,45.70
2023-02-25T07:10:54.850Z,45.80
2023-02-25T07:13:24.894Z,45.60
2023-02-25T07:15:54.821Z,45.30
2023-02-25T07:18:24.823Z,44.80
2023-02-25T07:20:54.793Z,44.90
2023-02-25T07:23:24.691Z,45.10
2023-02-25T07:25:55.407Z,44.60
2023-02-25T07:28:28.377Z,44.00
2023-02-25T07:30:58.359Z,44.70
2023-02-25T07:33:28.513Z,44.80
2023-02-25T07:35:59.117Z,44.90
2023-02-25T07:38:29.344Z,44.60
2023-02-25T07:40:59.279Z,44.70
2023-02-25T07:43:31.825Z,44.70
2023-02-25T07:46:02.124Z,44.80
2023-02-25T07:48:32.480Z,44.60
2023-02-25T07:51:12.364Z,44.50
2023-02-25T07:53:42.490Z,44.50
2023-02-25T07:56:12.904Z,43.90
2023-02-25T07:58:43.535Z,43.80
2023-02-25T08:01:33.375Z,44.00
2023-02-25T08:04:06.719Z,44.00
2023-02-25T08:06:41.677Z,43.90
2023-02-25T08:09:20.397Z,43.40
2023-02-25T08:11:50.391Z,43.40
2023-02-25T08:14:20.502Z,43.50
2023-02-25T08:16:53.478Z,43.50
2023-02-25T08:19:23.626Z,42.80
2023-02-25T08:21:53.656Z,42.70
2023-02-25T08:24:24.689Z,42.40
2023-02-25T08:26:56.541Z,42.40
2023-02-25T08:29:26.514Z,42.20
2023-02-25T08:31:56.614Z,42.40
2023-02-25T08:34:26.990Z,42.60
2023-02-25T08:37:03.202Z,42.60
2023-02-25T08:39:34.092Z,42.70
2023-02-25T08:42:04.053Z,42.30
2023-02-25T08:44:33.758Z,42.10
2023-02-25T08:47:03.894Z,42.60
2023-02-25T08:49:34.314Z,42.60
2023-02-25T08:52:04.112Z,42.70
2023-02-25T08:54:34.516Z,42.70
2023-02-25T08:57:05.739Z,42.60
2023-02-25T08:59:38.193Z,42.60
2023-02-25T09:02:14.722Z,42.30
2023-02-25T09:04:44.614Z,42.50
2023-02-25T09:07:15.730Z,42.20
2023-02-25T09:09:46.132Z,42.30
2023-02-25T09:12:15.999Z,42.60
2023-02-25T09:14:46.136Z,42.50
2023-02-25T09:17:16.033Z,42.70
2023-02-25T09:19:45.983Z,42.70
2023-02-25T09:22:16.011Z,42.80
2023-02-25T09:24:46.077Z,42.80
2023-02-25T09:27:16.749Z,42.80
2023-02-25T09:29:46.600Z,43.00
2023-02-25T09:32:22.096Z,43.10
2023-02-25T09:34:52.399Z,43.20
2023-02-25T09:37:23.468Z,43.30
2023-02-25T09:39:53.504Z,43.40
2023-02-25T09:42:25.890Z,43.50
2023-02-25T09:45:03.714Z,43.60
2023-02-25T09:47:42.453Z,43.60
2023-02-25T09:50:27.618Z,43.10
2023-02-25T09:53:27.656Z,43.00
2023-02-25T09:55:58.023Z,43.30
2023-02-25T09:58:43.210Z,43.40
2023-02-25T10:01:41.656Z,43.30
2023-02-25T10:04:50.516Z,42.90
2023-02-25T10:07:30.587Z,43.40
2023-02-25T10:10:33.715Z,43.40
2023-02-25T10:13:35.990Z,43.60
2023-02-25T10:16:36.326Z,43.60
2023-02-25T10:19:34.068Z,43.60
2023-02-25T10:22:28.649Z,43.60
2023-02-25T10:25:05.573Z,43.80
2023-02-25T10:27:41.539Z,43.90
2023-02-25T10:30:29.851Z,44.00
2023-02-25T10:33:02.626Z,44.00
2023-02-25T10:35:37.227Z,44.20
2023-02-25T10:38:07.264Z,44.30
2023-02-25T10:40:37.139Z,44.40
2023-02-25T10:43:24.899Z,44.30
2023-02-25T10:46:05.658Z,44.50
2023-02-25T10:48:37.272Z,44.40
2023-02-25T10:51:17.355Z,44.60
2023-02-25T10:54:10.833Z,44.60
2023-02-25T10:56:51.439Z,44.70
2023-02-25T10:59:31.764Z,44.70
2023-02-25T11:02:03.374Z,44.70
2023-02-25T11:04:39.853Z,44.90
2023-02-25T11:07:33.173Z,45.30
2023-02-25T11:10:22.078Z,45.30
2023-02-25T11:12:55.014Z,45.40
2023-02-25T11:15:46.479Z,45.40
2023-02-25T11:18:31.781Z,45.50
2023-02-25T11:21:09.090Z,45.70
2023-02-25T11:23:48.946Z,45.80
2023-02-25T11:26:29.834Z,45.90
2023-02-25T11:29:05.123Z,46.00
2023-02-25T11:31:42.398Z,46.10
2023-02-25T11:34:25.759Z,46.10
2023-02-25T11:36:56.381Z,46.20
2023-02-25T11:39:34.370Z,46.30
2023-02-25T11:42:04.800Z,46.60
2023-02-25T11:44:45.438Z,47.00
2023-02-25T11:47:27.514Z,47.00
2023-02-25T11:50:28.639Z,47.00
2023-02-25T11:53:31.212Z,47.10
2023-02-25T11:56:22.099Z,47.20
2023-02-25T11:59:15.637Z,47.30
2023-02-25T12:02:06.376Z,47.40
2023-02-25T12:05:08.026Z,47.50
2023-02-25T12:08:15.294Z,47.60
2023-02-25T12:11:24.349Z,47.80
2023-02-25T12:14:29.888Z,47.90
2023-02-25T12:17:35.149Z,48.10
2023-02-25T12:20:44.124Z,48.20
2023-02-25T12:23:52.948Z,48.40
2023-02-25T12:26:50.939Z,48.50
2023-02-25T12:30:00.842Z,48.60
2023-02-25T12:33:09.672Z,48.80
2023-02-25T12:35:58.464Z,49.00
2023-02-25T12:39:07.956Z,49.10
2023-02-25T12:42:14.076Z,49.30
2023-02-25T12:45:08.964Z,49.50
2023-02-25T12:48:04.838Z,49.80
2023-02-25T12:51:14.470Z,49.70
2023-02-25T12:54:17.866Z,49.70
2023-02-25T12:57:26.812Z,49.70
2023-02-25T13:00:25.201Z,49.60
2023-02-25T13:03:29.393Z,49.70
2023-02-25T13:06:29.245Z,49.70
2023-02-25T13:09:35.999Z,49.80
2023-02-25T13:12:36.390Z,49.90
2023-02-25T13:15:19.112Z,49.90
2023-02-25T13:18:27.027Z,50.00
2023-02-25T13:21:28.902Z,50.00
2023-02-25T13:24:13.694Z,50.10
2023-02-25T13:27:16.039Z,50.20
2023-02-25T13:30:15.385Z,50.40
2023-02-25T13:33:13.024Z,50.70
2023-02-25T13:36:22.273Z,51.00
2023-02-25T13:39:31.381Z,51.30
2023-02-25T13:42:29.643Z,51.60
2023-02-25T13:45:34.156Z,51.80
2023-02-25T13:48:43.002Z,52.20
2023-02-25T13:51:51.300Z,52.60
2023-02-25T13:55:00.159Z,52.80
2023-02-25T13:58:10.441Z,53.50
2023-02-25T14:01:07.883Z,53.80
2023-02-25T14:04:16.920Z,54.30
2023-02-25T14:07:25.775Z,54.40
2023-02-25T14:10:23.409Z,54.50
2023-02-25T14:13:22.902Z,54.50
2023-02-25T14:16:28.595Z,54.60
2023-02-25T14:19:31.425Z,54.40
2023-02-25T14:22:31.475Z,54.30
2023-02-25T14:25:39.285Z,54.30
2023-02-25T14:28:28.274Z,54.30
2023-02-25T14:31:38.289Z,54.50
2023-02-25T14:34:47.936Z,54.30
2023-02-25T14:37:28.340Z,54.40
2023-02-25T14:40:37.298Z,54.50
2023-02-25T14:43:35.063Z,54.60
2023-02-25T14:46:44.924Z,54.50
2023-02-25T14:49:34.513Z,54.40
2023-02-25T14:52:37.112Z,54.40
2023-02-25T14:55:45.928Z,54.20
2023-02-25T14:58:41.616Z,54.10
2023-02-25T15:01:41.211Z,53.90
2023-02-25T15:04:40.627Z,53.80
2023-02-25T15:07:49.417Z,53.70
2023-02-25T15:10:54.227Z,53.50
2023-02-25T15:13:57.813Z,53.40
2023-02-25T15:17:11.010Z,53.30
2023-02-25T15:20:06.552Z,53.20
2023-02-25T15:22:45.283Z,53.10
2023-02-25T15:25:39.637Z,53.00
2023-02-25T15:28:35.850Z,53.00
2023-02-25T15:31:30.581Z,53.00
2023-02-25T15:34:31.728Z,52.80
2023-02-25T15:37:28.440Z,52.80
2023-02-25T15:40:19.001Z,52.80
2023-02-25T15:42:57.482Z,52.70
2023-02-25T15:45:38.634Z,52.80
2023-02-25T15:48:31.424Z,52.70
2023-02-25T15:51:02.873Z,52.70
2023-02-25T15:53:43.185Z,52.70
2023-02-25T15:56:32.674Z,52.80
2023-02-25T15:59:03.457Z,52.80
2023-02-25T16:01:45.035Z,52.70
2023-02-25T16:04:46.685Z,52.80
2023-02-25T16:07:30.097Z,52.80
2023-02-25T16:10:28.661Z,52.80
2023-02-25T16:13:00.529Z,52.90
2023-02-25T16:15:48.478Z,53.00
2023-02-25T16:18:39.975Z,53.00
2023-02-25T16:21:17.507Z,53.10
2023-02-25T16:23:48.908Z,53.10
2023-02-25T16:26:49.882Z,53.10
2023-02-25T16:29:58.877Z,53.20
2023-02-25T16:32:58.628Z,53.20
2023-02-25T16:35:53.422Z,53.40
2023-02-25T16:38:48.256Z,53.40
2023-02-25T16:41:19.212Z,53.50
2023-02-25T16:43:50.151Z,53.60
2023-02-25T16:46:27.075Z,53.80
2023-02-25T16:49:02.243Z,53.80
2023-02-25T16:51:38.698Z,54.00
2023-02-25T16:54:15.179Z,54.00
2023-02-25T16:56:49.073Z,54.10
2023-02-25T16:59:23.433Z,54.10
2023-02-25T17:02:05.720Z,54.30
2023-02-25T17:04:39.973Z,54.30
2023-02-25T17:07:30.091Z,54.40
2023-02-25T17:10:05.215Z,54.60
2023-02-25T17:12:43.032Z,54.60
2023-02-25T17:15:34.399Z,54.60
2023-02-25T17:18:32.915Z,55.00
2023-02-25T17:21:14.040Z,55.00
2023-02-25T17:23:45.609Z,55.00
2023-02-25T17:26:20.581Z,55.10
2023-02-25T17:28:57.678Z,55.10
2023-02-25T17:31:30.069Z,55.30
2023-02-25T17:34:05.214Z,55.40
2023-02-25T17:36:44.152Z,55.40
2023-02-25T17:39:19.042Z,55.50
2023-02-25T17:41:50.024Z,55.50
2023-02-25T17:44:45.172Z,55.50
2023-02-25T17:47:23.206Z,55.60
2023-02-25T17:49:52.655Z,55.60
2023-02-25T17:52:26.581Z,55.80
2023-02-25T17:55:03.045Z,55.70
2023-02-25T17:57:34.979Z,55.70
2023-02-25T18:00:26.471Z,55.80
2023-02-25T18:03:19.152Z,55.90
2023-02-25T18:06:00.688Z,56.00
2023-02-25T18:08:52.729Z,55.70
2023-02-25T18:13:44.123Z,56.00
2023-02-25T18:18:35.173Z,55.90
2023-02-25T18:21:05.168Z,56.10
